Time;durP1;ratioP1;P1;durP2;ratioP2;P2;SDS_P1;SDS_P2;PMS_P1;PMS_P2;Temp;Humidity;BMP_temperature;BMP_pressure;BME280_temperature;BME280_humidity;BME280_pressure;Samples;Min_cycle;Max_cycle;Signal;HPM_P1;HPM_P2
2024/01/12 00:00:37;;;;;;;36.33;16.58;;;;;;;-0.39;100.00;103257.97;5073383;28;20049;-48
2024/01/12 00:03:06;;;;;;;37.78;17.80;;;;;;;-0.39;100.00;103269.19;5070153;28;20072;-50
2024/01/12 00:05:35;;;;;;;36.05;17.45;;;;;;;-0.37;100.00;103261.47;5070116;28;20492;-52
2024/01/12 00:08:04;;;;;;;36.60;16.80;;;;;;;-0.38;100.00;103254.56;5070364;28;20044;-50
2024/01/12 00:10:33;;;;;;;37.25;17.35;;;;;;;-0.38;100.00;103264.91;5069587;28;20057;-50
2024/01/12 00:13:01;;;;;;;39.53;17.95;;;;;;;-0.39;100.00;103257.97;5071501;28;20110;-49
2024/01/12 00:15:29;;;;;;;40.28;18.42;;;;;;;-0.34;100.00;103261.53;5073018;28;20215;-50
2024/01/12 00:17:57;;;;;;;39.90;17.65;;;;;;;-0.36;100.00;103261.47;5073009;28;20591;-50
2024/01/12 00:20:26;;;;;;;37.42;17.30;;;;;;;-0.34;100.00;103261.53;5072933;28;20113;-50
2024/01/12 00:22:56;;;;;;;34.40;16.77;;;;;;;-0.35;100.00;103249.44;5071529;28;20102;-51
2024/01/12 00:25:24;;;;;;;42.30;17.65;;;;;;;-0.36;100.00;103251.13;5071799;28;20052;-50
2024/01/12 00:27:52;;;;;;;41.05;18.05;;;;;;;-0.37;100.00;103243.34;5072691;28;20119;-47
2024/01/12 00:30:20;;;;;;;39.63;17.33;;;;;;;-0.39;100.00;103242.47;5072504;28;20218;-47
2024/01/12 00:32:49;;;;;;;46.17;19.60;;;;;;;-0.36;100.00;103238.22;5072705;28;20421;-51
2024/01/12 00:35:17;;;;;;;42.05;19.60;;;;;;;-0.37;100.00;103238.19;5072473;28;20044;-46
2024/01/12 00:37:48;;;;;;;43.28;18.73;;;;;;;-0.35;100.00;103242.53;5072451;28;20511;-46
2024/01/12 00:40:18;;;;;;;45.30;19.80;;;;;;;-0.31;100.00;103248.66;5072766;28;20102;-45
2024/01/12 00:42:46;;;;;;;43.17;18.33;;;;;;;-0.32;100.00;103254.66;5073004;28;20055;-46
2024/01/12 00:45:14;;;;;;;40.83;20.52;;;;;;;-0.33;100.00;103242.56;5072374;28;20048;-46
2024/01/12 00:47:43;;;;;;;40.58;18.60;;;;;;;-0.31;100.00;103251.25;5071648;28;20059;-46
2024/01/12 00:50:11;;;;;;;37.67;18.50;;;;;;;-0.33;100.00;103257.22;5067827;28;20064;-46
2024/01/12 00:52:40;;;;;;;40.83;19.00;;;;;;;-0.32;100.00;103257.25;5070182;28;20060;-47
2024/01/12 00:55:08;;;;;;;40.20;18.75;;;;;;;-0.31;100.00;103261.59;5072243;28;20059;-49
2024/01/12 00:57:38;;;;;;;41.67;19.50;;;;;;;-0.31;100.00;103261.59;5072067;28;20129;-48
2024/01/12 01:00:09;;;;;;;41.40;20.33;;;;;;;-0.31;100.00;103260.69;5072118;28;20052;-51
2024/01/12 01:02:37;;;;;;;42.40;20.92;;;;;;;-0.29;100.00;103264.19;5072248;28;20439;-47
2024/01/12 01:05:06;;;;;;;42.72;20.13;;;;;;;-0.29;100.00;103270.22;5072233;28;20438;-46
2024/01/12 01:07:35;;;;;;;39.72;19.98;;;;;;;-0.26;100.00;103259.06;5071582;28;20036;-48
2024/01/12 01:10:03;;;;;;;40.03;19.05;;;;;;;-0.26;100.00;103262.56;5071998;28;20033;-46
2024/01/12 01:12:32;;;;;;;37.97;18.52;;;;;;;-0.24;100.00;103265.16;5072331;28;20044;-48
2024/01/12 01:15:04;;;;;;;40.53;19.13;;;;;;;-0.26;100.00;103266.84;5072046;28;20075;-48
2024/01/12 01:17:32;;;;;;;;;;;;;;;-0.26;100.00;103275.47;5072470;28;20130;-49
2024/01/12 01:20:03;;;;;;;36.50;16.92;;;;;;;-0.24;100.00;103273.78;5071732;28;19920;-46
2024/01/12 01:22:33;;;;;;;39.95;18.77;;;;;;;-0.24;100.00;103266.03;5071644;28;20258;-46
2024/01/12 01:25:02;;;;;;;42.88;19.35;;;;;;;-0.24;100.00;103268.59;5071791;28;20253;-47
2024/01/12 01:27:30;;;;;;;38.63;18.98;;;;;;;-0.24;100.00;103273.78;5070336;28;20060;-50
2024/01/12 01:30:00;;;;;;;40.15;18.58;;;;;;;-0.24;100.00;103283.28;5068728;28;20055;-51
2024/01/12 01:32:29;;;;;;;35.85;17.40;;;;;;;-0.25;100.00;103272.03;5069300;28;20559;-50
2024/01/12 01:34:58;;;;;;;39.30;18.90;;;;;;;-0.24;100.00;103275.50;5071697;28;20055;-50
2024/01/12 01:37:26;;;;;;;42.85;20.05;;;;;;;-0.25;100.00;103279.78;5070310;28;20526;-48
2024/01/12 01:39:54;;;;;;;40.13;19.77;;;;;;;-0.23;100.00;103270.34;5068469;28;20691;-49
2024/01/12 01:42:22;;;;;;;35.20;16.80;;;;;;;-0.23;100.00;103270.34;5070564;28;20119;-50
2024/01/12 01:44:52;;;;;;;37.90;18.48;;;;;;;-0.25;100.00;103263.41;5071801;28;20075;-50
2024/01/12 01:47:21;;;;;;;39.40;19.65;;;;;;;-0.27;100.00;103252.16;5071772;28;20052;-51
2024/01/12 01:49:51;;;;;;;37.55;17.52;;;;;;;-0.26;100.00;103270.31;5071474;28;20064;-51
2024/01/12 01:52:20;;;;;;;35.47;16.88;;;;;;;-0.24;100.00;103266.03;5068343;28;20055;-49
2024/01/12 01:54:48;;;;;;;37.05;16.38;;;;;;;-0.23;100.00;103269.47;5069938;28;20116;-51
2024/01/12 01:57:17;;;;;;;40.50;18.15;;;;;;;-0.20;100.00;103261.78;5071655;28;20530;-49
2024/01/12 01:59:46;;;;;;;36.97;17.17;;;;;;;-0.21;100.00;103275.56;5069892;28;20052;-50
2024/01/12 02:02:14;;;;;;;39.03;18.17;;;;;;;-0.16;100.00;103268.75;5071574;28;20399;-48
2024/01/12 02:04:43;;;;;;;36.03;17.85;;;;;;;-0.19;100.00;103272.16;5071515;28;20059;-53
2024/01/12 02:07:12;;;;;;;34.58;17.35;;;;;;;-0.20;100.00;103265.25;5071014;28;20703;-47
2024/01/12 02:09:41;;;;;;;35.28;17.13;;;;;;;-0.20;100.00;103262.66;5068856;28;20079;-49
2024/01/12 02:12:09;;;;;;;34.20;16.33;;;;;;;-0.20;100.00;103259.19;5067586;28;20047;-49
2024/01/12 02:14:38;;;;;;;37.00;17.90;;;;;;;-0.14;100.00;103255.84;5067504;28;20131;-55
2024/01/12 02:17:06;;;;;;;36.70;17.65;;;;;;;-0.15;100.00;103251.50;5067530;28;20484;-52
2024/01/12 02:19:34;;;;;;;33.65;16.75;;;;;;;-0.15;100.00;103246.34;5068004;28;20045;-48
2024/01/12 02:22:04;;;;;;;38.30;18.10;;;;;;;-0.17;100.00;103243.72;5068576;28;20048;-48
2024/01/12 02:24:32;;;;;;;34.88;17.98;;;;;;;-0.19;100.00;103237.69;5068330;28;20091;-51
2024/01/12 02:27:00;;;;;;;36.15;17.60;;;;;;;-0.20;100.00;103238.50;5067803;28;20051;-49
2024/01/12 02:29:29;;;;;;;33.60;17.10;;;;;;;-0.20;100.00;103244.53;5071264;28;20079;-50
2024/01/12 02:31:58;;;;;;;32.17;16.38;;;;;;;-0.18;100.00;103247.16;5071199;28;20055;-49
2024/01/12 02:34:27;;;;;;;32.95;16.85;;;;;;;-0.20;100.00;103249.72;5069298;28;20048;-49
2024/01/12 02:36:55;;;;;;;34.17;16.13;;;;;;;-0.20;100.00;103252.31;5068102;28;20147;-49
2024/01/12 02:39:24;;;;;;;32.38;16.08;;;;;;;-0.20;100.00;103254.88;5067687;28;20044;-49
2024/01/12 02:41:57;;;;;;;35.83;16.90;;;;;;;-0.19;100.00;103259.22;5067604;28;20048;-50
2024/01/12 02:44:25;;;;;;;30.60;15.75;;;;;;;-0.15;100.00;103264.44;5068577;28;20048;-49
2024/01/12 02:46:54;;;;;;;32.78;16.45;;;;;;;-0.17;100.00;103251.50;5071335;28;20052;-48
2024/01/12 02:49:25;;;;;;;32.08;17.10;;;;;;;-0.18;100.00;103242.88;5071470;28;20035;-49
2024/01/12 02:51:53;;;;;;;36.22;17.52;;;;;;;-0.16;100.00;103245.47;5071489;28;20048;-50
2024/01/12 02:54:21;;;;;;;36.15;16.45;;;;;;;-0.17;100.00;103242.00;5074615;28;20396;-49
2024/01/12 02:56:50;;;;;;;33.28;16.67;;;;;;;-0.16;100.00;103242.91;5074658;28;20495;-48
2024/01/12 02:59:19;;;;;;;33.30;16.75;;;;;;;-0.16;100.00;103245.47;5072524;28;20102;-49
2024/01/12 03:01:47;;;;;;;30.10;15.18;;;;;;;-0.10;100.00;103240.41;5070484;28;20048;-49
2024/01/12 03:04:15;;;;;;;31.02;15.82;;;;;;;-0.11;100.00;103240.38;5073629;28;20395;-48
2024/01/12 03:06:43;;;;;;;31.90;16.63;;;;;;;-0.12;100.00;103251.56;5074452;28;20052;-49
2024/01/12 03:09:12;;;;;;;32.67;15.20;;;;;;;-0.13;100.00;103250.69;5074138;28;20045;-49
2024/01/12 03:11:40;;;;;;;32.08;15.65;;;;;;;-0.12;100.00;103247.28;5072730;28;20147;-50
2024/01/12 03:14:09;;;;;;;31.17;15.07;;;;;;;-0.12;100.00;103242.09;5074330;28;20051;-52
2024/01/12 03:16:38;;;;;;;36.40;15.73;;;;;;;-0.11;100.00;103245.56;5074131;28;20056;-50
2024/01/12 03:19:06;;;;;;;32.42;14.52;;;;;;;-0.11;100.00;103245.56;5073932;28;20033;-52
2024/01/12 03:21:34;;;;;;;30.85;15.43;;;;;;;-0.11;100.00;103235.19;5072752;28;20088;-49
2024/01/12 03:24:02;;;;;;;29.73;14.15;;;;;;;-0.09;100.00;103228.34;5073991;28;20054;-51
2024/01/12 03:26:36;;;;;;;30.05;14.48;;;;;;;-0.11;100.00;103222.25;5072189;28;20055;-49
2024/01/12 03:29:04;;;;;;;30.88;14.35;;;;;;;-0.11;100.00;103228.34;5070198;28;20484;-51
2024/01/12 03:31:34;;;;;;;29.48;14.07;;;;;;;-0.09;100.00;103218.00;5070062;28;20480;-48
2024/01/12 03:34:03;;;;;;;26.17;13.57;;;;;;;-0.07;100.00;103211.13;5073501;28;20063;-53
2024/01/12 03:36:31;;;;;;;28.00;14.25;;;;;;;-0.05;100.00;103209.44;5069268;28;20107;-53
2024/01/12 03:39:00;;;;;;;26.40;13.30;;;;;;;-0.06;100.00;103208.56;5070227;28;20048;-47
2024/01/12 03:41:28;;;;;;;28.90;13.40;;;;;;;-0.05;100.00;103209.44;5070050;28;20052;-49
2024/01/12 03:43:56;;;;;;;29.45;13.43;;;;;;;-0.02;100.00;103209.50;5069620;28;20487;-49
2024/01/12 03:46:26;;;;;;;29.70;13.20;;;;;;;-0.01;100.00;103211.25;5073723;28;20100;-49
2024/01/12 03:48:56;;;;;;;27.77;13.07;;;;;;;-0.01;100.00;103216.41;5073735;28;20450;-50
2024/01/12 03:51:24;;;;;;;30.90;12.75;;;;;;;0.00;100.00;103220.75;5073589;28;20091;-50
2024/01/12 03:53:52;;;;;;;26.67;12.70;;;;;;;-0.01;100.00;103230.22;5073521;28;20063;-50
2024/01/12 03:56:21;;;;;;;28.85;12.13;;;;;;;0.00;100.00;103233.69;5073174;28;20446;-49
2024/01/12 03:58:49;;;;;;;27.23;11.82;;;;;;;-0.02;100.00;103230.19;5069362;28;20063;-50
2024/01/12 04:01:17;;;;;;;24.65;11.35;;;;;;;-0.03;100.00;103228.44;5071215;28;20079;-50
2024/01/12 04:03:45;;;;;;;24.60;11.60;;;;;;;-0.02;100.00;103232.78;5073299;28;20121;-50
2024/01/12 04:06:15;;;;;;;27.33;11.98;;;;;;;0.00;100.00;103231.09;5071644;28;20052;-50
2024/01/12 04:08:43;;;;;;;29.23;11.82;;;;;;;0.01;100.00;103226.78;5069553;28;20053;-45
2024/01/12 04:11:22;;;;;;;22.38;9.90;;;;;;;0.02;100.00;103228.53;5070061;28;20090;-47
2024/01/12 04:13:50;;;;;;;20.60;10.30;;;;;;;0.00;100.00;103220.75;5073030;28;20064;-46
2024/01/12 04:16:19;;;;;;;21.77;11.07;;;;;;;0.05;100.00;103221.69;5073008;28;20052;-46
2024/01/12 04:18:47;;;;;;;24.92;10.85;;;;;;;0.05;100.00;103219.09;5073189;28;20045;-47
2024/01/12 04:21:18;;;;;;;20.50;9.85;;;;;;;0.05;100.00;103213.91;5072957;28;20037;-47
2024/01/12 04:23:46;;;;;;;23.80;9.75;;;;;;;0.06;100.00;103225.16;5072621;28;20082;-48
2024/01/12 04:26:14;;;;;;;21.23;9.75;;;;;;;0.07;100.00;103222.59;5068502;28;20044;-51
2024/01/12 04:28:43;;;;;;;21.10;9.35;;;;;;;0.07;100.00;103222.59;5069421;28;20156;-52
2024/01/12 04:31:11;;;;;;;21.63;8.65;;;;;;;0.12;100.00;103226.13;5068733;28;20037;-51
2024/01/12 04:33:40;;;;;;;18.38;8.65;;;;;;;0.11;100.00;103223.50;5068963;28;20097;-49
2024/01/12 04:36:08;;;;;;;22.00;9.27;;;;;;;0.10;100.00;103216.59;5069691;28;20106;-50
2024/01/12 04:38:38;;;;;;;23.70;8.80;;;;;;;0.08;100.00;103211.41;5069286;28;20491;-48
2024/01/12 04:41:06;;;;;;;18.33;7.97;;;;;;;0.09;100.00;103207.94;5072242;28;20488;-49
2024/01/12 04:43:34;;;;;;;21.10;8.52;;;;;;;0.11;100.00;103188.16;5072404;28;20127;-48
2024/01/12 04:46:02;;;;;;;24.75;8.07;;;;;;;0.10;100.00;103191.59;5072579;28;20373;-51
2024/01/12 04:48:30;;;;;;;24.00;8.15;;;;;;;0.11;100.00;103195.91;5072368;28;20365;-51
2024/01/12 04:50:59;;;;;;;18.98;8.02;;;;;;;0.12;100.00;103195.09;5071837;28;20049;-50
2024/01/12 04:53:27;;;;;;;18.15;7.50;;;;;;;0.12;100.00;103189.91;5069331;28;20084;-51
2024/01/12 04:55:57;;;;;;;19.60;7.75;;;;;;;0.12;100.00;103187.31;5070948;28;20384;-51
2024/01/12 04:58:25;;;;;;;24.02;7.30;;;;;;;0.10;100.00;103181.22;5069362;28;20044;-52
2024/01/12 05:00:54;;;;;;;20.60;7.57;;;;;;;0.12;100.00;103182.13;5068159;28;20060;-49
2024/01/12 05:03:22;;;;;;;20.55;8.45;;;;;;;0.11;100.00;103172.63;5068682;28;20046;-52
2024/01/12 05:05:52;;;;;;;17.95;7.40;;;;;;;0.12;100.00;103176.06;5069760;28;20055;-49
2024/01/12 05:08:21;;;;;;;18.55;7.38;;;;;;;0.12;100.00;103184.72;5072267;28;20045;-49
2024/01/12 05:10:49;;;;;;;15.70;6.68;;;;;;;0.15;100.00;103182.19;5071538;28;20411;-54
2024/01/12 05:13:18;;;;;;;16.92;6.35;;;;;;;0.15;100.00;103192.53;5070532;28;20407;-49
2024/01/12 05:15:47;;;;;;;21.08;6.57;;;;;;;0.17;100.00;103196.00;5068780;28;20076;-49
2024/01/12 05:18:15;;;;;;;19.85;6.82;;;;;;;0.20;100.00;103202.09;5068958;28;20055;-50
2024/01/12 05:20:45;;;;;;;21.20;6.82;;;;;;;0.24;100.00;103203.88;5071167;28;20053;-49
2024/01/12 05:23:14;;;;;;;22.40;6.38;;;;;;;0.25;100.00;103208.22;5068890;28;20080;-50
2024/01/12 05:25:42;;;;;;;16.42;6.90;;;;;;;0.25;100.00;103201.31;5070764;28;20112;-51
2024/01/12 05:28:10;;;;;;;15.93;6.35;;;;;;;0.28;100.00;103205.66;5068950;28;20148;-51
2024/01/12 05:30:43;;;;;;;16.13;5.82;;;;;;;0.27;100.00;103206.50;5067939;28;20040;-49
2024/01/12 05:33:11;;;;;;;15.38;6.22;;;;;;;0.26;100.00;103204.75;5069180;28;20579;-49
2024/01/12 05:35:40;;;;;;;14.95;5.85;;;;;;;0.26;100.00;103204.75;5071591;28;20048;-49
2024/01/12 05:38:08;;;;;;;17.80;6.35;;;;;;;0.26;100.00;103205.66;5071807;28;20076;-49
2024/01/12 05:40:36;;;;;;;14.07;5.45;;;;;;;0.28;100.00;103208.25;5067089;28;20059;-53
2024/01/12 05:43:05;;;;;;;20.02;6.20;;;;;;;0.29;100.00;103210.00;5068087;28;20044;-51
2024/01/12 05:45:33;;;;;;;18.50;6.25;;;;;;;0.28;100.00;103205.66;5069002;28;20047;-50
2024/01/12 05:48:03;;;;;;;16.35;6.22;;;;;;;0.28;100.00;103210.84;5071547;28;20413;-50
2024/01/12 05:50:31;;;;;;;17.70;6.05;;;;;;;0.27;100.00;103204.81;5069908;28;20041;-50
2024/01/12 05:52:59;;;;;;;21.08;5.97;;;;;;;0.28;100.00;103201.34;5067954;28;20081;-50
2024/01/12 05:55:28;;;;;;;19.38;5.85;;;;;;;0.29;100.00;103202.25;5067864;28;20477;-49
2024/01/12 05:57:57;;;;;;;18.15;6.22;;;;;;;0.30;100.00;103203.97;5068542;28;20051;-48
2024/01/12 06:00:25;;;;;;;13.75;5.88;;;;;;;0.31;100.00;103205.72;5071299;28;20053;-50
2024/01/12 06:02:53;;;;;;;21.48;6.75;;;;;;;0.33;100.00;103207.47;5070350;28;20431;-51
2024/01/12 06:05:23;;;;;;;16.90;6.80;;;;;;;0.36;100.00;103209.25;5071473;28;20114;-49
2024/01/12 06:07:51;;;;;;;24.15;6.90;;;;;;;0.39;100.00;103211.88;5071403;28;20040;-49
2024/01/12 06:10:19;;;;;;;21.48;6.90;;;;;;;0.39;100.00;103221.38;5071522;28;20815;-49
2024/01/12 06:12:48;;;;;;;19.10;6.40;;;;;;;0.39;100.00;103224.81;5071639;28;20045;-50
2024/01/12 06:15:16;;;;;;;18.90;6.60;;;;;;;0.40;100.00;103215.34;5071359;28;20056;-51
2024/01/12 06:17:44;;;;;;;15.25;6.28;;;;;;;0.43;100.00;103216.25;5071348;28;20050;-49
2024/01/12 06:20:12;;;;;;;14.48;5.72;;;;;;;0.45;100.00;103209.38;5071465;28;20098;-52
2024/01/12 06:22:43;;;;;;;17.08;6.63;;;;;;;0.45;100.00;103214.56;5073366;28;20052;-53
2024/01/12 06:25:11;;;;;;;17.60;7.00;;;;;;;0.45;100.00;103227.53;5075161;28;20114;-54
2024/01/12 06:27:41;;;;;;;22.73;7.43;;;;;;;0.49;100.00;103220.66;5075387;28;20048;-51
2024/01/12 06:30:09;;;;;;;16.38;6.75;;;;;;;0.49;100.00;103213.75;5075037;28;20102;-50
2024/01/12 06:32:38;;;;;;;19.33;7.07;;;;;;;0.50;100.00;103215.50;5075002;28;20040;-48
2024/01/12 06:35:11;;;;;;;19.55;6.45;;;;;;;0.51;100.00;103213.78;5074835;28;20051;-51
2024/01/12 06:37:39;;;;;;;14.32;6.10;;;;;;;0.50;100.00;103209.44;5073290;28;20535;-46
2024/01/12 06:40:12;;;;;;;15.32;6.28;;;;;;;0.50;100.00;103207.75;5070225;28;20044;-48
2024/01/12 06:42:42;;;;;;;18.92;6.45;;;;;;;0.48;100.00;103201.66;5073146;28;20041;-45
2024/01/12 06:45:12;;;;;;;18.13;6.88;;;;;;;0.48;100.00;103208.56;5074799;28;20048;-45
2024/01/12 06:47:40;;;;;;;17.00;6.45;;;;;;;0.48;100.00;103198.22;5074653;28;20056;-47
2024/01/12 06:50:09;;;;;;;16.52;6.03;;;;;;;0.46;100.00;103200.78;5074622;28;20068;-49
2024/01/12 06:52:38;;;;;;;16.38;6.32;;;;;;;0.45;100.00;103188.69;5074302;28;20127;-46
2024/01/12 06:55:09;;;;;;;17.95;7.90;;;;;;;0.45;100.00;103185.19;5072352;28;20090;-48
2024/01/12 06:57:38;;;;;;;18.95;6.95;;;;;;;0.44;100.00;103191.25;5070763;28;20408;-45
2024/01/12 07:00:08;;;;;;;16.08;6.40;;;;;;;0.46;100.00;103197.31;5074358;28;20057;-46
2024/01/12 07:02:36;;;;;;;20.75;7.85;;;;;;;0.44;100.00;103202.47;5074419;28;20106;-46
2024/01/12 07:05:08;;;;;;;20.48;7.10;;;;;;;0.45;100.00;103201.63;5074496;28;20050;-46
2024/01/12 07:07:36;;;;;;;26.05;8.85;;;;;;;0.46;100.00;103195.59;5074503;28;20054;-47
2024/01/12 07:10:05;;;;;;;23.85;7.60;;;;;;;0.46;100.00;103179.19;5074403;28;20123;-45
2024/01/12 07:12:33;;;;;;;15.38;7.65;;;;;;;0.45;100.00;103183.50;5074362;28;20044;-48
2024/01/12 07:15:03;;;;;;;18.88;8.57;;;;;;;0.47;100.00;103183.50;5072940;28;20080;-48
2024/01/12 07:17:31;;;;;;;17.90;8.13;;;;;;;0.46;100.00;103177.47;5074371;28;20510;-47
2024/01/12 07:20:00;;;;;;;19.65;7.82;;;;;;;0.44;100.00;103178.31;5074153;28;20066;-47
2024/01/12 07:22:28;;;;;;;19.58;8.43;;;;;;;0.46;100.00;103174.00;5074049;28;20109;-48
2024/01/12 07:25:00;;;;;;;24.45;7.50;;;;;;;0.47;100.00;103174.00;5074286;28;20044;-46
2024/01/12 07:27:28;;;;;;;16.92;7.18;;;;;;;0.47;100.00;103176.59;5074113;28;20547;-47
2024/01/12 07:29:56;;;;;;;18.45;7.97;;;;;;;0.48;100.00;103182.69;5074057;28;20454;-47
2024/01/12 07:32:26;;;;;;;20.40;8.43;;;;;;;0.48;100.00;103183.53;5071788;28;20045;-48
2024/01/12 07:34:55;;;;;;;15.95;7.90;;;;;;;0.47;100.00;103192.16;5069844;28;20098;-46
2024/01/12 07:37:26;;;;;;;20.08;7.53;;;;;;;0.45;100.00;103183.50;5073164;28;20055;-49
2024/01/12 07:39:54;;;;;;;18.60;6.93;;;;;;;0.47;100.00;103186.09;5073941;28;20102;-46
2024/01/12 07:42:22;;;;;;;17.50;7.50;;;;;;;0.47;100.00;103188.69;5074133;28;20032;-46
2024/01/12 07:44:50;;;;;;;16.27;7.43;;;;;;;0.48;100.00;103187.84;5073504;28;20044;-45
2024/01/12 07:47:19;;;;;;;18.88;7.80;;;;;;;0.47;100.00;103199.91;5073553;28;20036;-47
2024/01/12 07:49:50;;;;;;;17.35;7.20;;;;;;;0.48;100.00;103193.03;5073482;28;20050;-47
2024/01/12 07:52:20;;;;;;;19.42;6.55;;;;;;;0.47;100.00;103197.31;5071806;28;20098;-48
2024/01/12 07:54:50;;;;;;;13.57;6.90;;;;;;;0.48;100.00;103198.22;5073225;28;20055;-50
2024/01/12 07:57:18;;;;;;;15.95;7.18;;;;;;;0.49;100.00;103200.81;5073141;28;20124;-45
2024/01/12 07:59:47;;;;;;;19.95;7.57;;;;;;;0.50;100.00;103206.84;5072971;28;20147;-46
2024/01/12 08:02:15;;;;;;;15.13;6.78;;;;;;;0.49;100.00;103200.81;5073192;28;20044;-46
2024/01/12 08:04:43;;;;;;;17.65;6.95;;;;;;;0.50;100.00;103202.56;5073130;28;20177;-51
2024/01/12 08:07:13;;;;;;;16.45;6.88;;;;;;;0.51;100.00;103200.84;5073416;28;20143;-47
2024/01/12 08:09:41;;;;;;;17.90;6.82;;;;;;;0.50;100.00;103202.56;5071898;28;20056;-48
2024/01/12 08:12:10;;;;;;;17.80;7.10;;;;;;;0.52;100.00;103200.00;5073237;28;20047;-46
2024/01/12 08:14:38;;;;;;;15.77;7.78;;;;;;;0.55;100.00;103201.75;5073048;28;20060;-46
2024/01/12 08:17:09;;;;;;;20.02;8.57;;;;;;;0.56;100.00;103190.53;5073096;28;20047;-46
2024/01/12 08:19:37;;;;;;;22.23;8.63;;;;;;;0.57;100.00;103190.56;5071773;28;20080;-49
2024/01/12 08:22:06;;;;;;;22.75;8.88;;;;;;;0.58;100.00;103192.31;5073111;28;20138;-47
2024/01/12 08:24:39;;;;;;;21.95;8.95;;;;;;;0.60;100.00;103192.31;5071689;28;20058;-47
2024/01/12 08:27:10;;;;;;;15.75;8.10;;;;;;;0.65;100.00;103199.28;5072770;28;20076;-46
2024/01/12 08:29:41;;;;;;;20.45;9.18;;;;;;;0.69;100.00;103197.63;5072813;28;20049;-48
2024/01/12 08:32:09;;;;;;;19.15;8.43;;;;;;;0.73;100.00;103199.41;5071547;28;20075;-46
2024/01/12 08:34:40;;;;;;;18.27;7.45;;;;;;;0.73;100.00;103198.56;5069167;28;20055;-47
2024/01/12 08:37:09;;;;;;;17.75;7.53;;;;;;;0.73;100.00;103196.81;5071013;28;20479;-47
2024/01/12 08:39:40;;;;;;;17.52;7.10;;;;;;;0.77;100.00;103185.66;5072710;28;20511;-47
2024/01/12 08:42:09;;;;;;;18.95;6.88;;;;;;;0.81;100.00;103189.16;5072875;28;20454;-46
2024/01/12 08:44:41;;;;;;;20.98;7.18;;;;;;;0.82;100.00;103188.31;5072501;28;20094;-48
2024/01/12 08:47:09;;;;;;;17.80;6.13;;;;;;;0.83;100.00;103185.75;5071929;28;20070;-47
2024/01/12 08:49:38;;;;;;;14.63;6.45;;;;;;;0.88;100.00;103185.78;5071195;28;20056;-46
2024/01/12 08:52:06;;;;;;;14.45;6.80;;;;;;;0.93;100.00;103185.88;5072467;28;20518;-46
2024/01/12 08:54:34;;;;;;;14.05;6.53;;;;;;;0.95;100.00;103189.34;5072305;28;20045;-45
2024/01/12 08:57:05;;;;;;;18.00;6.85;;;;;;;1.00;100.00;103185.09;5072269;28;20127;-46
2024/01/12 08:59:36;;;;;;;17.17;6.30;;;;;;;1.01;100.00;103195.47;5072211;28;20107;-47
2024/01/12 09:02:04;;;;;;;15.43;6.28;;;;;;;1.04;100.00;103209.31;5072193;28;20044;-46
2024/01/12 09:04:32;;;;;;;16.30;6.50;;;;;;;1.05;100.00;103201.56;5071034;28;20084;-47
2024/01/12 09:07:01;;;;;;;17.70;6.18;;;;;;;1.05;100.00;103205.88;5072294;28;20407;-48
2024/01/12 09:09:29;;;;;;;18.00;6.25;;;;;;;1.09;100.00;103197.28;5071274;28;20058;-53
2024/01/12 09:11:58;;;;;;;17.58;6.35;;;;;;;1.10;100.00;103194.69;5067396;28;20040;-52
2024/01/12 09:14:30;;;;;;;15.50;5.10;;;;;;;1.13;100.00;103202.53;5070532;28;20047;-49
2024/01/12 09:16:59;;;;;;;15.68;6.10;;;;;;;1.14;100.00;103193.88;5071773;28;20110;-46
2024/01/12 09:19:27;;;;;;;15.65;6.00;;;;;;;1.19;100.00;103196.56;5071894;28;20407;-53
2024/01/12 09:21:55;;;;;;;18.42;6.10;;;;;;;1.22;100.00;103198.31;5071291;28;20041;-52
2024/01/12 09:24:23;;;;;;;17.63;5.45;;;;;;;1.25;100.00;103193.16;5067371;28;20090;-51
2024/01/12 09:26:51;;;;;;;18.23;6.88;;;;;;;1.24;100.00;103184.50;5069788;28;20119;-52
2024/01/12 09:29:19;;;;;;;18.77;6.55;;;;;;;1.30;100.00;103189.75;5071648;28;20041;-50
2024/01/12 09:31:49;;;;;;;21.25;6.95;;;;;;;1.32;100.00;103195.84;5071740;28;20058;-49
2024/01/12 09:34:17;;;;;;;17.05;7.03;;;;;;;1.36;100.00;103191.53;5068156;28;20068;-50
2024/01/12 09:36:45;;;;;;;15.93;6.20;;;;;;;1.39;100.00;103191.59;5068491;28;20040;-50
2024/01/12 09:39:17;;;;;;;16.35;6.75;;;;;;;1.43;100.00;103190.78;5067221;28;20057;-51
2024/01/12 09:41:46;;;;;;;16.90;6.30;;;;;;;1.47;100.00;103195.13;5070564;28;20052;-52
2024/01/12 09:44:20;;;;;;;15.48;6.05;;;;;;;1.51;100.00;103180.47;5068499;28;20040;-49
2024/01/12 09:46:55;;;;;;;14.63;6.15;;;;;;;1.51;100.00;103183.94;5068110;28;20068;-50
2024/01/12 09:49:24;;;;;;;15.65;6.40;;;;;;;1.55;100.00;103189.16;5070455;28;20056;-50
2024/01/12 09:51:53;;;;;;;13.52;6.03;;;;;;;1.60;100.00;103190.06;5068426;28;21172;-50
2024/01/12 09:54:23;;;;;;;18.55;7.53;;;;;;;1.66;100.00;103179.75;5070375;28;20040;-49
2024/01/12 09:56:53;;;;;;;16.40;6.35;;;;;;;1.69;100.00;103175.47;5069834;28;20108;-52
2024/01/12 09:59:25;;;;;;;21.17;6.57;;;;;;;1.73;100.00;103178.94;5075243;28;20504;-49
2024/01/12 10:01:56;;;;;;;13.82;6.05;;;;;;;1.79;100.00;103188.53;5076676;28;20101;-52
2024/01/12 10:04:24;;;;;;;15.95;6.28;;;;;;;1.83;100.00;103177.31;5074627;28;20448;-51
2024/01/12 10:06:55;;;;;;;17.25;6.80;;;;;;;1.90;100.00;103188.63;5074655;28;20044;-50
2024/01/12 10:09:24;;;;;;;14.52;6.63;;;;;;;1.94;100.00;103183.47;5073329;28;20048;-50
2024/01/12 10:11:54;;;;;;;16.40;6.95;;;;;;;1.97;100.00;103191.25;5077833;28;20103;-50
2024/01/12 10:14:23;;;;;;;15.23;6.97;;;;;;;2.00;100.00;103199.09;5076784;28;20052;-51
2024/01/12 10:16:55;;;;;;;17.38;6.82;;;;;;;2.01;100.00;103187.84;5074126;28;20117;-50
2024/01/12 10:19:23;;;;;;;17.88;6.05;;;;;;;2.06;100.00;103192.19;5077172;28;20117;-50
2024/01/12 10:21:52;;;;;;;18.35;6.78;;;;;;;2.05;100.00;103193.94;5077969;28;20557;-49
2024/01/12 10:24:21;;;;;;;14.30;6.75;;;;;;;2.07;100.00;103196.53;5077434;28;20048;-51
2024/01/12 10:26:51;;;;;;;17.05;7.40;;;;;;;2.11;100.00;103190.50;5074526;28;20048;-50
2024/01/12 10:29:20;;;;;;;18.55;7.60;;;;;;;2.13;100.00;103192.25;5074353;28;20048;-49
2024/01/12 10:31:48;;;;;;;15.93;7.28;;;;;;;2.15;100.00;103185.34;5076990;28;20120;-52
2024/01/12 10:34:18;;;;;;;16.92;7.15;;;;;;;2.16;100.00;103181.91;5073581;28;20055;-53
2024/01/12 10:36:50;;;;;;;14.07;6.78;;;;;;;2.16;100.00;103175.84;5075034;28;20040;-51
2024/01/12 10:39:20;;;;;;;16.75;6.93;;;;;;;2.17;100.00;103181.03;5075554;28;20072;-53
2024/01/12 10:41:49;;;;;;;18.30;7.35;;;;;;;2.18;100.00;103185.38;5077913;28;20044;-53
2024/01/12 10:44:22;;;;;;;18.35;7.55;;;;;;;2.22;100.00;103186.25;5073617;28;20041;-52
2024/01/12 10:46:54;;;;;;;20.65;8.07;;;;;;;2.24;100.00;103186.28;5074011;28;20127;-54
2024/01/12 10:49:27;;;;;;;17.08;6.85;;;;;;;2.24;100.00;103188.91;5073994;28;20507;-47
2024/01/12 10:52:03;;;;;;;19.00;7.72;;;;;;;2.24;100.00;103181.09;5074136;28;20499;-48
2024/01/12 10:54:35;;;;;;;15.77;7.25;;;;;;;2.27;100.00;103179.38;5074648;28;20399;-47
2024/01/12 10:57:03;;;;;;;17.65;6.85;;;;;;;2.27;100.00;103181.13;5073505;28;20142;-51
2024/01/12 10:59:32;;;;;;;17.80;6.63;;;;;;;2.27;100.00;103171.59;5073539;28;20059;-46
2024/01/12 11:02:02;;;;;;;17.52;7.18;;;;;;;2.28;100.00;103170.72;5077622;28;20503;-47
2024/01/12 11:04:33;;;;;;;14.40;6.60;;;;;;;2.29;100.00;103171.59;5076066;28;20521;-47
2024/01/12 11:07:02;;;;;;;15.05;7.35;;;;;;;2.27;100.00;103168.13;5073995;28;20079;-45
2024/01/12 11:09:31;;;;;;;17.88;7.13;;;;;;;2.30;100.00;103160.34;5073158;28;20115;-46
2024/01/12 11:12:04;;;;;;;15.88;7.07;;;;;;;2.32;100.00;103169.91;5074273;28;20036;-48
2024/01/12 11:14:32;;;;;;;19.60;7.07;;;;;;;2.34;100.00;103177.69;5074447;28;20131;-48
2024/01/12 11:17:01;;;;;;;15.30;6.80;;;;;;;2.36;100.00;103165.59;5074436;28;20045;-48
2024/01/12 11:19:29;;;;;;;18.95;7.65;;;;;;;2.38;100.00;103170.81;5072992;28;20052;-45